Time;durP1;ratioP1;P1;durP2;ratioP2;P2;SDS_P1;SDS_P2;PMS_P1;PMS_P2;Temp;Humidity;BMP_temperature;BMP_pressure;BME280_temperature;BME280_humidity;BME280_pressure;Samples;Min_cycle;Max_cycle;Signal;HPM_P1;HPM_P2
2022/03/09 00:01:54;;;;;;;10.82;9.73;;;21.20;61.70;;;;;;6048029;28;94048;-69
2022/03/09 00:04:57;;;;;;;12.18;10.52;;;21.20;61.70;;;;;;6051047;28;95428;-69
2022/03/09 00:07:59;;;;;;;11.38;10.18;;;21.10;61.60;;;;;;6058745;28;94196;-69
2022/03/09 00:11:01;;;;;;;10.82;9.73;;;21.20;61.70;;;;;;6060041;28;94401;-69
2022/03/09 00:14:03;;;;;;;11.02;9.93;;;21.20;61.70;;;;;;6065075;28;94176;-68
2022/03/09 00:17:07;;;;;;;10.85;9.75;;;21.20;61.60;;;;;;6045711;28;93371;-68
2022/03/09 00:20:10;;;;;;;11.38;9.65;;;21.10;61.60;;;;;;6045775;28;93015;-69
2022/03/09 00:23:12;;;;;;;10.40;9.40;;;21.10;61.60;;;;;;6057975;28;94478;-69
2022/03/09 00:26:15;;;;;;;10.80;9.70;;;21.10;61.70;;;;;;6048061;28;93375;-69
2022/03/09 00:29:17;;;;;;;11.32;10.20;;;21.10;61.70;;;;;;6034788;28;94246;-68
2022/03/09 00:32:20;;;;;;;10.32;9.32;;;21.10;61.70;;;;;;6033473;28;94168;-69
2022/03/09 00:35:22;;;;;;;10.73;9.57;;;21.10;61.70;;;;;;6033817;28;95023;-68
2022/03/09 00:38:24;;;;;;;11.30;10.20;;;21.10;61.80;;;;;;6041158;28;94721;-68
2022/03/09 00:41:26;;;;;;;10.55;9.45;;;21.10;61.80;;;;;;6045197;28;94326;-69
2022/03/09 00:44:28;;;;;;;10.57;9.52;;;21.10;61.80;;;;;;6060822;28;94133;-68
2022/03/09 00:47:32;;;;;;;10.57;9.50;;;21.10;61.90;;;;;;6050761;28;94092;-68
2022/03/09 00:50:34;;;;;;;10.82;9.73;;;21.10;61.90;;;;;;6035037;28;94190;-68
2022/03/09 00:53:36;;;;;;;10.18;9.18;;;21.00;61.90;;;;;;6045866;28;94101;-68
2022/03/09 00:56:38;;;;;;;10.50;9.40;;;21.10;61.90;;;;;;6035339;28;93780;-69
2022/03/09 00:59:40;;;;;;;9.32;8.43;;;21.00;61.90;;;;;;6034181;28;94267;-68
2022/03/09 01:02:45;;;;;;;10.23;9.13;;;21.00;61.90;;;;;;6048431;28;94192;-67
2022/03/09 01:05:47;;;;;;;10.02;9.02;;;21.00;61.80;;;;;;6034343;28;94949;-67
2022/03/09 01:08:50;;;;;;;9.05;8.15;;;21.10;61.90;;;;;;6045338;28;94367;-68
2022/03/09 01:11:52;;;;;;;9.45;8.45;;;21.00;61.70;;;;;;6053962;28;94153;-69
2022/03/09 01:14:54;;;;;;;10.20;9.18;;;21.00;61.70;;;;;;6045271;28;94513;-68
2022/03/09 01:17:57;;;;;;;9.32;8.43;;;21.00;61.80;;;;;;6043094;28;94316;-68
2022/03/09 01:20:59;;;;;;;9.38;8.40;;;21.00;61.80;;;;;;6057922;28;94212;-68
2022/03/09 01:24:02;;;;;;;9.25;8.35;;;21.00;61.80;;;;;;6038171;28;94119;-68
2022/03/09 01:27:04;;;;;;;9.85;8.85;;;21.00;61.90;;;;;;6034928;28;92155;-69
2022/03/09 01:30:08;;;;;;;8.85;7.95;;;21.00;61.90;;;;;;6044905;28;94119;-68
2022/03/09 01:33:12;;;;;;;9.55;8.60;;;21.00;61.90;;;;;;6050298;28;94092;-69
2022/03/09 01:36:14;;;;;;;9.20;8.25;;;20.90;61.80;;;;;;6055543;28;95043;-68
2022/03/09 01:39:16;;;;;;;8.90;8.00;;;20.90;61.90;;;;;;6055060;28;94148;-69
2022/03/09 01:42:18;;;;;;;8.68;7.88;;;20.90;61.90;;;;;;6058922;28;94155;-68
2022/03/09 01:45:20;;;;;;;8.52;6.63;;;20.90;61.90;;;;;;6065937;28;94109;-68
2022/03/09 01:48:24;;;;;;;7.35;6.65;;;20.90;61.70;;;;;;6043674;28;94007;-68
2022/03/09 01:51:26;;;;;;;8.73;6.85;;;20.90;61.60;;;;;;6051525;28;93860;-68
2022/03/09 01:54:29;;;;;;;7.43;6.40;;;20.90;61.60;;;;;;6064932;28;94176;-69
2022/03/09 01:57:32;;;;;;;7.85;7.05;;;20.90;62.60;;;;;;6042479;28;93492;-67
2022/03/09 02:00:34;;;;;;;7.60;6.88;;;20.90;61.70;;;;;;6049549;28;94194;-68
2022/03/09 02:03:37;;;;;;;7.47;6.78;;;20.90;61.70;;;;;;6045636;28;94062;-68
2022/03/09 02:06:40;;;;;;;7.65;6.78;;;20.90;61.70;;;;;;6039384;28;95208;-68
2022/03/09 02:09:42;;;;;;;7.60;6.90;;;20.90;61.70;;;;;;6041031;28;94345;-68
2022/03/09 02:12:44;;;;;;;7.35;6.55;;;20.90;61.80;;;;;;6045693;28;93999;-68
2022/03/09 02:15:46;;;;;;;7.15;6.45;;;20.90;61.80;;;;;;6046899;28;93995;-68
2022/03/09 02:18:49;;;;;;;7.40;6.70;;;20.90;61.90;;;;;;6044563;28;94046;-68
2022/03/09 02:21:56;;;;;;;7.72;6.93;;;20.80;61.80;;;;;;6046322;28;94207;-69
2022/03/09 02:25:00;;;;;;;7.03;6.32;;;20.80;61.90;;;;;;6044771;28;94141;-68
2022/03/09 02:28:02;;;;;;;7.30;6.60;;;20.80;61.80;;;;;;6058504;28;93384;-68
2022/03/09 02:31:04;;;;;;;6.93;6.25;;;20.80;61.80;;;;;;6048572;28;94104;-68
2022/03/09 02:34:06;;;;;;;7.25;6.55;;;20.80;61.90;;;;;;6063671;28;94092;-68
2022/03/09 02:37:09;;;;;;;7.25;6.55;;;20.80;61.90;;;;;;6036173;28;95270;-68
2022/03/09 02:40:15;;;;;;;8.05;6.35;;;20.80;61.90;;;;;;6050234;28;94205;-69
2022/03/09 02:43:17;;;;;;;7.00;6.25;;;20.70;61.80;;;;;;6057854;28;94146;-68
2022/03/09 02:46:19;;;;;;;6.95;6.25;;;20.80;61.90;;;;;;6046313;28;94156;-68
2022/03/09 02:49:21;;;;;;;6.65;5.97;;;20.80;61.90;;;;;;6037230;28;94167;-68
2022/03/09 02:52:23;;;;;;;7.03;6.32;;;20.80;61.90;;;;;;6045345;28;94034;-68
2022/03/09 02:55:27;;;;;;;6.97;6.28;;;20.80;61.90;;;;;;6039042;28;94087;-68
2022/03/09 02:58:29;;;;;;;6.53;5.82;;;20.80;61.90;;;;;;6049969;28;93771;-68
2022/03/09 03:01:31;;;;;;;6.28;5.63;;;20.80;61.90;;;;;;6057291;28;94557;-68
2022/03/09 03:04:33;;;;;;;6.80;6.15;;;20.80;61.80;;;;;;6051562;28;94268;-68
2022/03/09 03:07:35;;;;;;;6.45;5.85;;;20.70;61.80;;;;;;6047968;28;95035;-68
2022/03/09 03:10:39;;;;;;;6.55;5.85;;;20.70;61.70;;;;;;6047967;28;94384;-68
2022/03/09 03:13:42;;;;;;;6.75;6.07;;;20.70;61.80;;;;;;6067992;28;94075;-68
2022/03/09 03:16:44;;;;;;;6.13;5.53;;;20.70;61.80;;;;;;6047454;28;94473;-68
2022/03/09 03:19:46;;;;;;;6.00;5.40;;;20.70;61.80;;;;;;6037646;28;94187;-69
2022/03/09 03:22:48;;;;;;;6.03;5.43;;;20.70;61.80;;;;;;6046910;28;94094;-68
2022/03/09 03:25:52;;;;;;;5.97;5.38;;;20.70;61.80;;;;;;6035201;28;94624;-69
2022/03/09 03:28:54;;;;;;;5.72;5.20;;;20.70;61.90;;;;;;6046779;28;93499;-68
2022/03/09 03:31:56;;;;;;;6.25;5.65;;;20.70;61.90;;;;;;6043749;28;94215;-68
2022/03/09 03:34:58;;;;;;;6.72;5.53;;;20.70;61.90;;;;;;6067731;28;94200;-69
2022/03/09 03:38:00;;;;;;;5.70;5.10;;;20.70;61.90;;;;;;6046618;28;95180;-68
2022/03/09 03:41:03;;;;;;;5.70;5.10;;;20.70;61.90;;;;;;6049970;28;94229;-68
2022/03/09 03:44:06;;;;;;;5.68;5.18;;;20.70;61.90;;;;;;6043089;28;92947;-69
2022/03/09 03:47:08;;;;;;;5.45;4.95;;;20.70;61.90;;;;;;6045959;28;94071;-69
2022/03/09 03:50:10;;;;;;;5.57;5.07;;;20.70;61.90;;;;;;6054132;28;94433;-68
2022/03/09 03:53:12;;;;;;;5.32;4.82;;;20.70;61.90;;;;;;6042338;28;94275;-68
2022/03/09 03:56:16;;;;;;;5.05;4.55;;;20.60;61.90;;;;;;6046073;28;94191;-68
2022/03/09 03:59:18;;;;;;;5.25;4.70;;;20.70;61.80;;;;;;6043269;28;92184;-68
2022/03/09 04:02:20;;;;;;;5.30;4.80;;;20.70;61.90;;;;;;6058777;28;94151;-68
2022/03/09 04:05:22;;;;;;;5.10;4.60;;;20.70;61.90;;;;;;6037286;28;94088;-68
2022/03/09 04:08:24;;;;;;;5.10;4.60;;;20.70;61.80;;;;;;6057601;28;95240;-68
2022/03/09 04:11:27;;;;;;;5.25;4.80;;;20.70;61.70;;;;;;6045894;28;94472;-69
2022/03/09 04:14:30;;;;;;;6.45;4.78;;;20.70;61.70;;;;;;6045515;28;94241;-69
2022/03/09 04:17:39;;;;;;;5.00;4.50;;;20.70;61.70;;;;;;6048834;28;93922;-68
2022/03/09 04:20:41;;;;;;;5.43;4.80;;;20.70;61.70;;;;;;6042357;28;94205;-69
2022/03/09 04:23:44;;;;;;;4.55;4.03;;;20.70;61.70;;;;;;6038410;28;94450;-68
2022/03/09 04:26:48;;;;;;;4.78;4.30;;;20.70;61.70;;;;;;6052093;28;94403;-69
2022/03/09 04:29:50;;;;;;;5.40;4.90;;;20.70;61.60;;;;;;6052855;28;93516;-68
2022/03/09 04:32:52;;;;;;;4.90;4.50;;;20.70;61.70;;;;;;6048232;28;94034;-69
2022/03/09 04:35:54;;;;;;;4.88;4.47;;;20.80;61.60;;;;;;6037956;28;94090;-68
2022/03/09 04:38:56;;;;;;;5.15;4.65;;;20.80;61.50;;;;;;6057732;28;95280;-68
2022/03/09 04:42:00;;;;;;;4.72;4.32;;;20.80;61.50;;;;;;6056990;28;94149;-68
2022/03/09 04:45:02;;;;;;;4.75;4.35;;;20.80;61.40;;;;;;6047182;28;94174;-67
2022/03/09 04:48:04;;;;;;;4.15;3.80;;;20.80;61.40;;;;;;6043918;28;94029;-68
2022/03/09 04:51:06;;;;;;;4.95;4.40;;;20.80;61.40;;;;;;6046914;28;94167;-68
2022/03/09 04:54:08;;;;;;;4.50;4.10;;;20.80;61.40;;;;;;6056259;28;94096;-68
2022/03/09 04:57:12;;;;;;;4.90;4.20;;;20.80;61.30;;;;;;6057131;28;94076;-68
2022/03/09 05:00:14;;;;;;;4.50;4.10;;;20.80;61.20;;;;;;6043414;28;93393;-68
2022/03/09 05:03:16;;;;;;;4.90;4.40;;;20.90;61.40;;;;;;6039750;28;94141;-68
2022/03/09 05:06:18;;;;;;;4.47;4.07;;;20.80;61.20;;;;;;6047931;28;94215;-68
2022/03/09 05:09:20;;;;;;;4.65;4.25;;;20.90;61.30;;;;;;6033065;28;95326;-68
2022/03/09 05:12:24;;;;;;;4.47;4.07;;;20.80;61.20;;;;;;6039982;28;93024;-68
2022/03/09 05:15:26;;;;;;;4.20;3.80;;;20.80;61.20;;;;;;6049076;28;94048;-68
2022/03/09 05:18:28;;;;;;;4.30;3.90;;;20.90;61.30;;;;;;6037977;28;93994;-68
2022/03/09 05:21:30;;;;;;;4.22;3.80;;;20.80;61.20;;;;;;6043902;28;94062;-68
2022/03/09 05:24:33;;;;;;;4.60;4.20;;;20.90;61.30;;;;;;6047511;28;94156;-68
2022/03/09 05:27:36;;;;;;;4.80;4.30;;;20.90;61.30;;;;;;6043388;28;94419;-69
2022/03/09 05:30:38;;;;;;;4.22;3.80;;;20.80;61.20;;;;;;6047278;28;93512;-68
2022/03/09 05:33:40;;;;;;;5.25;4.05;;;20.80;61.20;;;;;;6042866;28;94193;-68
2022/03/09 05:36:42;;;;;;;5.53;4.10;;;20.90;61.30;;;;;;6044369;28;94111;-68
2022/03/09 05:39:45;;;;;;;4.60;4.20;;;20.80;61.30;;;;;;6046791;28;95253;-68
2022/03/09 05:42:48;;;;;;;4.57;4.00;;;20.90;61.40;;;;;;6047400;28;94154;-68
2022/03/09 05:45:50;;;;;;;4.35;3.95;;;20.80;61.30;;;;;;6058479;28;94083;-68
2022/03/09 05:48:52;;;;;;;3.88;3.53;;;20.80;61.40;;;;;;6049391;28;94009;-68
2022/03/09 05:51:54;;;;;;;4.00;3.60;;;20.80;61.40;;;;;;6061606;28;94244;-67
2022/03/09 05:54:58;;;;;;;4.13;3.83;;;20.80;61.40;;;;;;6060060;28;94284;-68
2022/03/09 05:58:02;;;;;;;4.30;3.90;;;20.80;61.40;;;;;;6051638;28;94091;-68
2022/03/09 06:01:38;;;;;;;4.90;3.97;;;20.90;61.40;;;;;;6049263;28;93462;-67
2022/03/09 06:04:42;;;;;;;4.55;4.15;;;20.80;61.60;;;;;;6054957;28;96311;-66
2022/03/09 06:07:45;;;;;;;4.43;4.03;;;20.90;63.10;;;;;;6066343;28;94211;-66
2022/03/09 06:10:47;;;;;;;4.65;4.25;;;20.90;64.40;;;;;;6052515;28;95514;-65
2022/03/09 06:13:51;;;;;;;4.35;3.92;;;20.90;63.30;;;;;;6054854;28;94150;-66
2022/03/09 06:16:53;;;;;;;4.35;3.95;;;21.00;62.80;;;;;;6053704;28;94070;-65
2022/03/09 06:19:55;;;;;;;4.60;4.20;;;21.00;62.70;;;;;;6048938;28;93891;-66
2022/03/09 06:22:57;;;;;;;4.03;3.72;;;21.10;62.60;;;;;;6059897;28;92984;-66
2022/03/09 06:25:59;;;;;;;5.30;4.03;;;21.10;62.40;;;;;;6056769;28;94170;-66
2022/03/09 06:29:03;;;;;;;4.30;3.83;;;21.10;62.20;;;;;;6051889;28;94544;-66
2022/03/09 06:32:05;;;;;;;3.72;3.42;;;21.10;62.60;;;;;;6047346;28;92496;-67
2022/03/09 06:35:08;;;;;;;4.00;3.60;;;21.10;63.20;;;;;;6054001;28;94179;-66
2022/03/09 06:38:10;;;;;;;4.47;3.80;;;21.10;63.10;;;;;;6058433;28;94252;-65
2022/03/09 06:41:12;;;;;;;4.57;3.70;;;21.10;62.70;;;;;;6040139;28;94974;-65
2022/03/09 06:44:17;;;;;;;5.30;4.00;;;21.20;62.60;;;;;;6058568;28;94367;-66
2022/03/09 06:47:19;;;;;;;4.15;3.75;;;21.20;62.60;;;;;;6036934;28;94144;-65
2022/03/09 06:50:21;;;;;;;4.47;3.60;;;21.20;62.50;;;;;;6036836;28;94579;-66
2022/03/09 06:53:23;;;;;;;4.28;3.88;;;21.20;62.40;;;;;;6057730;28;94135;-66
2022/03/09 06:56:26;;;;;;;4.07;3.67;;;21.20;62.30;;;;;;6048832;28;94590;-66
2022/03/09 06:59:29;;;;;;;4.18;3.78;;;21.20;62.20;;;;;;6049605;28;94288;-65
2022/03/09 07:02:31;;;;;;;4.10;3.70;;;21.20;62.20;;;;;;6072309;28;93329;-65
2022/03/09 07:05:35;;;;;;;4.40;4.00;;;21.20;62.10;;;;;;6053707;28;92914;-66
2022/03/09 07:08:37;;;;;;;3.80;3.40;;;21.20;62.10;;;;;;6042672;28;94073;-65
2022/03/09 07:11:39;;;;;;;3.67;3.38;;;21.30;62.20;;;;;;6062400;28;95135;-65
2022/03/09 07:14:42;;;;;;;4.22;3.60;;;21.30;62.10;;;;;;6049663;28;92191;-65
2022/03/09 07:17:46;;;;;;;4.43;3.97;;;21.30;62.10;;;;;;6048230;28;94654;-65
2022/03/09 07:20:48;;;;;;;4.20;3.80;;;21.30;62.10;;;;;;6034914;28;94052;-65
2022/03/09 07:23:50;;;;;;;4.30;3.90;;;21.30;62.00;;;;;;6045412;28;94112;-65
2022/03/09 07:26:53;;;;;;;4.30;3.90;;;21.30;62.00;;;;;;6042596;28;93227;-66
2022/03/09 07:29:57;;;;;;;4.30;3.90;;;21.30;62.10;;;;;;6056966;28;96448;-65
2022/03/09 07:32:59;;;;;;;3.95;3.55;;;21.30;62.00;;;;;;6054017;28;93378;-65
2022/03/09 07:36:01;;;;;;;4.30;3.78;;;21.40;63.00;;;;;;6059590;28;93098;-65
2022/03/09 07:39:03;;;;;;;3.97;3.63;;;21.30;62.00;;;;;;6055623;28;94393;-65
2022/03/09 07:42:06;;;;;;;3.75;3.45;;;21.40;62.20;;;;;;6051204;28;95530;-65
2022/03/09 07:45:10;;;;;;;4.10;3.78;;;21.40;62.20;;;;;;6065883;28;94132;-65
2022/03/09 07:48:13;;;;;;;4.18;3.78;;;21.40;62.20;;;;;;6048080;28;93995;-65
2022/03/09 07:51:15;;;;;;;6.03;4.15;;;21.40;62.20;;;;;;6046236;28;94234;-65
2022/03/09 07:54:18;;;;;;;4.63;3.90;;;21.40;62.30;;;;;;6059227;28;94235;-66
2022/03/09 07:57:20;;;;;;;5.07;3.90;;;21.50;62.50;;;;;;6045612;28;94147;-65
2022/03/09 08:00:23;;;;;;;4.22;3.60;;;21.50;62.70;;;;;;6051541;28;93953;-65
2022/03/09 08:03:25;;;;;;;4.10;3.70;;;21.50;62.70;;;;;;6054906;28;92626;-65
2022/03/09 08:06:28;;;;;;;5.63;3.72;;;21.50;62.80;;;;;;6053700;28;94478;-66
2022/03/09 08:09:30;;;;;;;4.40;3.53;;;21.50;62.80;;;;;;6041367;28;94428;-65
2022/03/09 08:12:33;;;;;;;4.22;3.72;;;21.50;62.80;;;;;;6047140;28;95209;-66
2022/03/09 08:15:37;;;;;;;3.90;3.50;;;21.50;62.80;;;;;;6046862;28;94183;-65
2022/03/09 08:18:39;;;;;;;4.22;3.70;;;21.50;62.80;;;;;;6048788;28;93884;-66
2022/03/09 08:21:41;;;;;;;5.50;4.20;;;21.50;62.80;;;;;;6042383;28;94060;-66
2022/03/09 08:24:43;;;;;;;4.13;3.35;;;21.50;62.80;;;;;;6034682;28;93963;-65
2022/03/09 08:27:45;;;;;;;4.50;3.80;;;21.50;62.80;;;;;;6046334;28;95055;-65
2022/03/09 08:30:54;;;;;;;3.85;3.47;;;21.60;63.00;;;;;;6047445;28;94613;-65
2022/03/09 08:33:57;;;;;;;5.40;3.88;;;21.50;62.80;;;;;;6057925;28;92391;-65
2022/03/09 08:36:59;;;;;;;4.57;3.70;;;21.60;63.00;;;;;;6046585;28;94227;-65
2022/03/09 08:40:01;;;;;;;4.13;3.70;;;21.60;63.00;;;;;;6058689;28;94087;-66
2022/03/09 08:43:03;;;;;;;3.50;3.20;;;21.60;63.00;;;;;;6046091;28;95346;-65
2022/03/09 08:46:06;;;;;;;3.70;3.30;;;21.60;63.00;;;;;;6039675;28;94025;-65
2022/03/09 08:49:08;;;;;;;4.38;3.47;;;21.60;63.00;;;;;;6061516;28;94379;-65
2022/03/09 08:52:12;;;;;;;3.80;3.40;;;21.60;63.00;;;;;;6042148;28;94122;-65
2022/03/09 08:55:14;;;;;;;3.88;3.58;;;21.70;63.00;;;;;;6055915;28;94089;-66
2022/03/09 08:58:16;;;;;;;4.32;3.60;;;21.70;63.10;;;;;;6051196;28;94117;-65
2022/03/09 09:01:20;;;;;;;3.65;3.30;;;21.60;63.00;;;;;;6060369;28;92979;-66
2022/03/09 09:04:22;;;;;;;3.50;3.20;;;21.70;63.00;;;;;;6041568;28;93475;-65
2022/03/09 09:07:24;;;;;;;3.72;3.42;;;21.70;63.10;;;;;;6053617;28;94216;-66
2022/03/09 09:10:26;;;;;;;3.75;3.45;;;21.70;63.10;;;;;;6046008;28;94101;-66
2022/03/09 09:13:28;;;;;;;3.40;3.10;;;21.70;63.20;;;;;;6050418;28;95332;-65
2022/03/09 09:16:32;;;;;;;3.78;3.47;;;21.70;63.20;;;;;;6059685;28;94106;-65
2022/03/09 09:19:34;;;;;;;3.72;3.38;;;21.70;63.20;;;;;;6060659;28;94453;-66
2022/03/09 09:22:36;;;;;;;3.65;3.35;;;21.70;63.30;;;;;;6050197;28;94440;-66
2022/03/09 09:25:38;;;;;;;3.90;3.50;;;21.70;63.20;;;;;;6048288;28;94200;-66
2022/03/09 09:28:41;;;;;;;3.80;3.33;;;21.80;63.30;;;;;;6044000;28;94398;-65
2022/03/09 09:31:44;;;;;;;3.85;3.50;;;21.80;63.10;;;;;;6058543;28;94321;-66
2022/03/09 09:34:46;;;;;;;3.72;3.40;;;21.80;63.30;;;;;;6054083;28;93455;-65
2022/03/09 09:37:48;;;;;;;3.17;2.90;;;21.80;63.30;;;;;;6054548;28;94090;-65
2022/03/09 09:40:53;;;;;;;3.58;3.28;;;21.80;63.40;;;;;;6054170;28;94096;-65
2022/03/09 09:43:55;;;;;;;3.58;3.28;;;21.80;63.40;;;;;;6052903;28;95112;-65
2022/03/09 09:47:17;;;;;;;3.38;3.08;;;21.80;63.30;;;;;;6048421;28;94297;-65
2022/03/09 09:50:20;;;;;;;3.58;3.20;;;21.80;63.40;;;;;;6061089;28;94219;-65
2022/03/09 09:53:24;;;;;;;3.92;3.60;;;21.80;63.30;;;;;;6037983;28;94178;-65
2022/03/09 09:56:26;;;;;;;3.60;3.20;;;21.80;63.30;;;;;;6047336;28;94157;-65
2022/03/09 09:59:28;;;;;;;3.65;3.10;;;21.80;63.30;;;;;;6050752;28;94227;-66
2022/03/09 10:02:32;;;;;;;3.60;3.30;;;21.80;63.30;;;;;;6036634;28;94090;-65
2022/03/09 10:05:34;;;;;;;3.33;3.03;;;21.80;63.30;;;;;;6046174;28;93421;-65
2022/03/09 10:08:38;;;;;;;3.58;3.28;;;21.80;63.30;;;;;;6048622;28;94432;-65
2022/03/09 10:11:48;;;;;;;3.60;3.30;;;21.80;63.30;;;;;;6065807;28;94192;-65
2022/03/09 10:14:53;;;;;;;3.42;3.05;;;21.90;63.40;;;;;;6048412;28;95019;-65
2022/03/09 10:18:12;;;;;;;3.30;3.00;;;21.80;63.30;;;;;;6038643;28;94356;-65
2022/03/09 10:21:17;;;;;;;3.53;3.22;;;21.90;63.30;;;;;;6048057;28;94467;-65
2022/03/09 10:24:24;;;;;;;3.47;3.17;;;21.90;63.40;;;;;;6061776;28;94566;-65
2022/03/09 10:27:38;;;;;;;3.30;3.00;;;21.90;63.40;;;;;;6060519;28;94270;-65
2022/03/09 10:30:42;;;;;;;3.40;3.10;;;21.80;63.30;;;;;;6048189;28;94104;-65
2022/03/09 10:33:45;;;;;;;3.50;3.20;;;21.90;63.30;;;;;;6049302;28;94137;-65
2022/03/09 10:36:56;;;;;;;3.30;3.00;;;21.90;63.40;;;;;;6048433;28;93349;-65
2022/03/09 10:40:09;;;;;;;3.65;3.20;;;21.90;63.40;;;;;;6048301;28;94370;-65
2022/03/09 10:43:13;;;;;;;3.38;3.08;;;21.90;63.40;;;;;;6035443;28;94720;-65
2022/03/09 10:46:16;;;;;;;3.60;3.10;;;21.90;63.40;;;;;;6048041;28;96812;-65
2022/03/09 10:49:25;;;;;;;3.42;3.13;;;21.90;63.40;;;;;;6050817;28;94251;-65
2022/03/09 10:52:46;;;;;;;3.30;3.00;;;21.90;63.40;;;;;;6045706;28;94139;-66
2022/03/09 10:55:49;;;;;;;3.33;3.03;;;21.90;63.40;;;;;;6049172;28;94236;-65
2022/03/09 10:58:52;;;;;;;3.20;2.90;;;21.90;63.40;;;;;;6050091;28;94229;-65
2022/03/09 11:02:06;;;;;;;3.10;2.80;;;21.90;63.50;;;;;;6052507;28;94715;-65
2022/03/09 11:05:12;;;;;;;2.92;2.72;;;21.90;63.50;;;;;;6048882;28;94276;-65
2022/03/09 11:08:16;;;;;;;3.30;3.00;;;22.00;63.50;;;;;;6060169;28;93435;-65
2022/03/09 11:11:21;;;;;;;3.17;2.88;;;22.00;63.50;;;;;;6065232;28;94215;-67
2022/03/09 11:14:26;;;;;;;2.90;2.70;;;22.00;63.50;;;;;;6052336;28;94476;-66
2022/03/09 11:17:29;;;;;;;4.50;2.70;;;22.00;63.50;;;;;;6058797;28;95434;-65
2022/03/09 11:20:32;;;;;;;4.28;2.72;;;22.00;63.60;;;;;;6037649;28;94173;-66
2022/03/09 11:23:38;;;;;;;2.90;2.60;;;22.00;63.60;;;;;;6056795;28;94110;-66
2022/03/09 11:26:44;;;;;;;3.03;2.63;;;22.00;63.70;;;;;;6051383;28;94318;-65
2022/03/09 11:29:46;;;;;;;4.00;2.50;;;22.10;63.80;;;;;;6053549;28;94433;-65
2022/03/09 11:32:49;;;;;;;215.25;59.28;;;22.10;64.00;;;;;;6041763;28;94056;-64
2022/03/09 11:35:52;;;;;;;511.77;106.00;;;22.10;66.90;;;;;;6047545;28;94077;-65
2022/03/09 11:38:56;;;;;;;133.30;35.58;;;22.10;74.00;;;;;;6048358;28;93405;-65
2022/03/09 11:42:31;;;;;;;62.55;22.42;;;22.10;76.60;;;;;;6036763;28;94184;-67
2022/03/09 11:45:33;;;;;;;26.17;9.77;;;22.20;72.50;;;;;;6057725;28;94125;-65
2022/03/09 11:48:50;;;;;;;21.23;8.70;;;22.20;69.60;;;;;;6040065;28;95650;-66
2022/03/09 11:52:09;;;;;;;24.40;9.05;;;22.30;79.10;;;;;;6034111;28;94143;-66
2022/03/09 11:55:18;;;;;;;33.60;12.20;;;22.40;71.00;;;;;;6052675;28;94089;-69
2022/03/09 11:58:20;;;;;;;17.35;7.30;;;22.40;69.40;;;;;;6040630;28;94185;-66
2022/03/09 12:01:22;;;;;;;15.82;6.63;;;22.50;67.80;;;;;;6054044;28;94282;-66
2022/03/09 12:04:56;;;;;;;16.85;6.35;;;22.60;63.50;;;;;;6044144;28;94124;-65
2022/03/09 12:08:00;;;;;;;15.00;6.03;;;22.60;62.10;;;;;;6038405;28;92143;-65
2022/03/09 12:11:02;;;;;;;13.05;5.88;;;22.70;62.30;;;;;;6057153;28;93384;-66
2022/03/09 12:14:04;;;;;;;18.20;6.50;;;22.80;61.40;;;;;;6046218;28;94244;-66
2022/03/09 12:17:07;;;;;;;13.63;5.63;;;22.80;61.10;;;;;;6049354;28;94754;-66
2022/03/09 12:20:20;;;;;;;15.05;5.63;;;22.80;60.80;;;;;;6055927;28;95172;-66
2022/03/09 12:23:23;;;;;;;13.05;5.60;;;22.80;60.70;;;;;;6038345;28;94188;-66
2022/03/09 12:26:41;;;;;;;12.60;5.43;;;22.80;60.60;;;;;;6047485;28;94210;-65
2022/03/09 12:29:43;;;;;;;12.77;5.28;;;22.80;60.60;;;;;;6054749;28;94509;-65
2022/03/09 12:32:45;;;;;;;13.20;4.95;;;22.70;60.60;;;;;;6048869;28;94178;-66
2022/03/09 12:35:47;;;;;;;12.82;5.10;;;22.70;60.70;;;;;;6047784;28;94458;-65
2022/03/09 12:38:52;;;;;;;11.65;5.35;;;22.70;60.80;;;;;;6047103;28;94471;-65
2022/03/09 12:41:56;;;;;;;10.82;4.50;;;22.70;60.90;;;;;;6047509;28;93445;-66
2022/03/09 12:44:59;;;;;;;11.85;5.28;;;22.60;60.80;;;;;;6037379;28;94467;-65
2022/03/09 12:48:01;;;;;;;11.45;4.82;;;22.60;61.00;;;;;;6058576;28;94152;-66
2022/03/09 12:51:04;;;;;;;11.50;4.88;;;22.50;61.00;;;;;;6045306;28;95163;-65
2022/03/09 12:54:07;;;;;;;10.20;4.95;;;22.50;61.10;;;;;;6032996;28;94321;-65
2022/03/09 12:57:22;;;;;;;8.75;4.53;;;22.50;61.30;;;;;;6036970;28;94101;-65
2022/03/09 13:00:27;;;;;;;10.55;4.47;;;22.50;61.40;;;;;;6049643;28;94300;-66
2022/03/09 13:03:29;;;;;;;11.18;4.55;;;22.50;61.50;;;;;;6041845;28;93186;-65
2022/03/09 13:06:32;;;;;;;10.45;4.65;;;22.50;61.50;;;;;;6066649;28;94609;-65
2022/03/09 13:09:36;;;;;;;11.05;4.47;;;22.50;61.60;;;;;;6058043;28;94616;-65
2022/03/09 13:12:49;;;;;;;8.38;4.20;;;22.50;61.60;;;;;;6064455;28;93431;-65
2022/03/09 13:15:52;;;;;;;8.52;4.30;;;22.40;61.80;;;;;;6043768;28;94060;-65
2022/03/09 13:19:13;;;;;;;9.45;4.45;;;22.40;62.00;;;;;;6049272;28;94275;-65
2022/03/09 13:22:15;;;;;;;8.85;3.90;;;22.40;62.00;;;;;;6034540;28;95146;-65
2022/03/09 13:25:19;;;;;;;7.53;3.88;;;22.40;62.00;;;;;;6046263;28;93645;-65
2022/03/09 13:28:29;;;;;;;7.80;3.80;;;22.40;62.00;;;;;;6054899;28;94054;-65
2022/03/09 13:31:41;;;;;;;7.82;4.13;;;22.40;62.00;;;;;;6037860;28;94120;-65
2022/03/09 13:34:45;;;;;;;8.35;4.25;;;22.30;62.00;;;;;;6053391;28;94302;-65
2022/03/09 13:37:47;;;;;;;7.43;3.97;;;22.40;62.20;;;;;;6054378;28;94176;-65
2022/03/09 13:40:51;;;;;;;8.23;4.00;;;22.30;62.10;;;;;;6041176;28;94195;-65
2022/03/09 13:43:54;;;;;;;7.28;3.85;;;22.40;62.20;;;;;;6047862;28;93449;-65
2022/03/09 13:47:05;;;;;;;6.22;3.55;;;22.40;62.20;;;;;;6049214;28;94233;-65
2022/03/09 13:50:36;;;;;;;7.13;3.60;;;22.40;62.30;;;;;;6036725;28;92963;-65
2022/03/09 13:53:41;;;;;;;8.68;3.90;;;22.30;62.20;;;;;;6037512;28;93893;-65
2022/03/09 13:56:44;;;;;;;7.18;3.42;;;22.40;62.30;;;;;;6054029;28;93868;-65
2022/03/09 13:59:46;;;;;;;6.53;3.55;;;22.40;62.30;;;;;;6056389;28;94402;-65
2022/03/09 14:02:49;;;;;;;8.98;3.72;;;22.40;62.30;;;;;;6038304;28;95307;-65
2022/03/09 14:05:52;;;;;;;5.70;3.40;;;22.30;62.30;;;;;;6047636;28;94162;-65
2022/03/09 14:08:56;;;;;;;6.47;3.13;;;22.40;62.40;;;;;;6053466;28;94198;-65
2022/03/09 14:12:00;;;;;;;7.75;3.50;;;22.40;62.40;;;;;;6059344;28;94199;-65
2022/03/09 14:15:02;;;;;;;5.47;3.15;;;22.40;62.40;;;;;;6045267;28;93529;-65
2022/03/09 14:18:04;;;;;;;6.85;3.63;;;22.40;62.40;;;;;;6049171;28;94144;-65
2022/03/09 14:21:06;;;;;;;6.40;3.50;;;22.40;62.40;;;;;;6050508;28;94122;-65
2022/03/09 14:24:08;;;;;;;5.75;2.95;;;22.30;62.40;;;;;;6049054;28;95021;-65
2022/03/09 14:27:12;;;;;;;5.30;3.05;;;22.40;62.50;;;;;;6050234;28;94424;-65
2022/03/09 14:30:15;;;;;;;5.93;3.20;;;22.40;62.50;;;;;;6048616;28;94184;-66
2022/03/09 14:33:17;;;;;;;6.13;3.22;;;22.40;62.50;;;;;;6036535;28;94211;-66
2022/03/09 14:36:20;;;;;;;5.53;3.00;;;22.40;63.70;;;;;;6051657;28;94522;-66
2022/03/09 14:39:25;;;;;;;5.07;3.22;;;22.30;64.40;;;;;;6057840;28;94249;-66
2022/03/09 14:42:28;;;;;;;5.85;2.72;;;22.40;64.70;;;;;;6061408;28;94533;-67
2022/03/09 14:45:31;;;;;;;6.13;3.22;;;22.40;64.80;;;;;;6054015;28;93514;-67
2022/03/09 14:48:33;;;;;;;8.05;3.22;;;22.40;65.00;;;;;;6054148;28;94365;-66
2022/03/09 14:51:37;;;;;;;4.15;2.70;;;22.50;65.30;;;;;;6047396;28;94128;-70
2022/03/09 14:54:41;;;;;;;7.63;3.00;;;22.50;65.40;;;;;;6060198;28;95112;-68
2022/03/09 14:57:47;;;;;;;6.82;3.15;;;22.40;65.30;;;;;;6051507;28;94694;-68
2022/03/09 15:00:50;;;;;;;6.57;2.80;;;22.40;65.90;;;;;;6043732;28;94202;-68
2022/03/09 15:03:54;;;;;;;5.97;2.67;;;22.50;66.10;;;;;;6044644;28;94109;-68
2022/03/09 15:06:56;;;;;;;5.95;3.05;;;22.50;66.10;;;;;;6044729;28;94421;-69
2022/03/09 15:10:02;;;;;;;8.05;3.10;;;22.50;66.10;;;;;;6039643;28;94046;-67
2022/03/09 15:13:06;;;;;;;4.45;2.40;;;22.40;65.90;;;;;;6044994;28;93867;-68
2022/03/09 15:16:10;;;;;;;6.50;2.65;;;22.40;66.10;;;;;;6049675;28;92044;-69
2022/03/09 15:19:13;;;;;;;4.90;2.38;;;22.40;66.10;;;;;;6045699;28;94168;-69
2022/03/09 15:22:15;;;;;;;6.80;2.80;;;22.40;66.10;;;;;;6049572;28;93215;-68
2022/03/09 15:25:17;;;;;;;8.55;2.60;;;22.40;66.10;;;;;;6036465;28;95146;-68
2022/03/09 15:28:20;;;;;;;6.20;2.80;;;22.40;66.40;;;;;;6047573;28;94108;-67
2022/03/09 15:31:24;;;;;;;4.53;2.67;;;22.40;67.50;;;;;;6049939;28;93034;-67
2022/03/09 15:34:27;;;;;;;4.20;2.28;;;22.40;66.00;;;;;;6043435;28;94191;-67
2022/03/09 15:37:29;;;;;;;6.35;2.47;;;22.40;65.90;;;;;;6052608;28;92852;-67
2022/03/09 15:40:31;;;;;;;4.70;2.13;;;22.30;65.50;;;;;;6041198;28;94196;-67
2022/03/09 15:43:35;;;;;;;5.80;2.80;;;22.30;65.30;;;;;;6039885;28;94075;-67
2022/03/09 15:46:37;;;;;;;3.50;2.10;;;22.30;66.20;;;;;;6052270;28;92113;-67
2022/03/09 15:49:39;;;;;;;3.33;2.20;;;22.20;65.10;;;;;;6056246;28;94367;-67
2022/03/09 15:52:41;;;;;;;3.88;2.53;;;22.20;65.00;;;;;;6046796;28;94105;-68
2022/03/09 15:56:02;;;;;;;4.47;2.25;;;22.20;64.90;;;;;;6052042;28;94963;-67